Time;durP1;ratioP1;P1;durP2;ratioP2;P2;SDS_P1;SDS_P2;PMS_P1;PMS_P2;Temp;Humidity;BMP_temperature;BMP_pressure;BME280_temperature;BME280_humidity;BME280_pressure;Samples;Min_cycle;Max_cycle;Signal;HPM_P1;HPM_P2
2021/10/20 00:00:58;;;;;;;21.33;19.23;;;17.70;99.90;;;;;;4958134;28;20226;-67
2021/10/20 00:03:27;;;;;;;19.53;17.53;;;17.70;99.90;;;;;;4954379;28;20211;-67
2021/10/20 00:05:52;;;;;;;19.07;17.30;;;17.70;99.90;;;;;;4955040;28;20649;-67
2021/10/20 00:08:18;;;;;;;19.67;17.73;;;17.60;99.90;;;;;;4957254;28;20610;-67
2021/10/20 00:10:46;;;;;;;19.07;17.17;;;17.60;99.90;;;;;;4956822;28;20317;-66
2021/10/20 00:13:12;;;;;;;18.90;17.00;;;17.60;99.90;;;;;;4955959;28;20282;-70
2021/10/20 00:15:40;;;;;;;19.33;17.37;;;17.60;99.90;;;;;;4955626;28;20729;-67
2021/10/20 00:18:08;;;;;;;19.90;17.80;;;17.60;99.90;;;;;;4958872;28;20207;-67
2021/10/20 00:20:38;;;;;;;19.60;17.53;;;17.60;99.90;;;;;;4954657;28;20718;-68
2021/10/20 00:23:08;;;;;;;17.97;16.23;;;17.60;99.90;;;;;;4958726;28;20704;-71
2021/10/20 00:25:34;;;;;;;20.70;18.27;;;17.50;99.90;;;;;;4957828;28;21077;-68
2021/10/20 00:28:02;;;;;;;19.60;17.80;;;17.50;99.90;;;;;;4958262;28;20615;-67
2021/10/20 00:30:28;;;;;;;19.00;17.13;;;17.60;99.90;;;;;;4958683;28;20214;-71
2021/10/20 00:32:56;;;;;;;19.23;17.37;;;17.50;99.90;;;;;;4959660;28;20949;-67
2021/10/20 00:35:22;;;;;;;18.73;16.93;;;17.50;99.90;;;;;;4958665;28;20316;-66
2021/10/20 00:37:47;;;;;;;19.67;17.10;;;17.40;99.90;;;;;;4959022;28;20782;-67
2021/10/20 00:40:15;;;;;;;18.13;16.10;;;17.40;99.90;;;;;;4954298;28;20234;-67
2021/10/20 00:42:43;;;;;;;18.87;16.87;;;17.40;99.90;;;;;;4956494;28;20334;-67
2021/10/20 00:45:09;;;;;;;18.87;16.67;;;17.30;99.90;;;;;;4956387;28;21052;-66
2021/10/20 00:47:45;;;;;;;19.40;17.40;;;17.30;99.90;;;;;;4959360;28;20637;-68
2021/10/20 00:50:12;;;;;;;19.10;15.50;;;17.30;99.90;;;;;;4956971;28;21238;-66
2021/10/20 00:52:38;;;;;;;17.37;15.67;;;17.30;99.90;;;;;;4955346;28;20721;-65
2021/10/20 00:55:05;;;;;;;16.77;15.13;;;17.30;99.90;;;;;;4958584;28;20788;-66
2021/10/20 00:57:32;;;;;;;17.40;15.70;;;17.30;99.90;;;;;;4957864;28;20286;-65
2021/10/20 01:00:07;;;;;;;18.50;15.80;;;17.30;99.90;;;;;;4958450;28;21001;-65
2021/10/20 01:02:37;;;;;;;17.17;15.47;;;17.30;99.90;;;;;;4958740;28;21192;-66
2021/10/20 01:05:09;;;;;;;17.53;14.60;;;17.30;99.90;;;;;;4952884;28;20615;-65
2021/10/20 01:07:36;;;;;;;15.83;14.17;;;17.30;99.90;;;;;;4958796;28;20615;-68
2021/10/20 01:10:04;;;;;;;15.30;13.70;;;17.30;99.90;;;;;;4958223;28;20634;-65
2021/10/20 01:12:32;;;;;;;16.47;14.73;;;17.20;99.90;;;;;;4955223;28;20627;-65
2021/10/20 01:15:01;;;;;;;16.13;14.47;;;17.20;99.90;;;;;;4957674;28;20602;-66
2021/10/20 01:17:29;;;;;;;15.30;13.90;;;17.20;99.90;;;;;;4956892;28;21053;-66
2021/10/20 01:20:00;;;;;;;15.60;13.90;;;17.20;99.90;;;;;;4957083;28;20623;-67
2021/10/20 01:22:33;;;;;;;13.60;12.27;;;17.10;99.90;;;;;;4959436;28;20733;-65
2021/10/20 01:25:02;;;;;;;15.77;13.10;;;17.10;99.90;;;;;;4960480;28;20661;-66
2021/10/20 01:27:28;;;;;;;15.37;13.30;;;17.10;99.90;;;;;;4958324;28;20661;-66
2021/10/20 01:29:57;;;;;;;15.47;13.87;;;17.10;99.90;;;;;;4960899;28;20618;-67
2021/10/20 01:32:26;;;;;;;14.73;13.37;;;17.00;99.90;;;;;;4956362;28;20192;-66
2021/10/20 01:34:55;;;;;;;14.93;13.43;;;17.00;99.90;;;;;;4958184;28;20622;-66
2021/10/20 01:37:29;;;;;;;16.00;13.13;;;17.00;99.90;;;;;;4959708;28;21114;-67
2021/10/20 01:39:57;;;;;;;14.10;12.60;;;17.00;99.90;;;;;;4954635;28;20664;-66
2021/10/20 01:42:24;;;;;;;15.33;13.80;;;16.90;99.90;;;;;;4961430;28;21259;-66
2021/10/20 01:44:52;;;;;;;15.80;14.20;;;16.90;99.90;;;;;;4956605;28;20651;-66
2021/10/20 01:47:20;;;;;;;16.90;13.67;;;16.90;99.90;;;;;;4958966;28;20774;-66
2021/10/20 01:49:47;;;;;;;14.37;12.87;;;16.80;99.90;;;;;;4953443;28;20631;-65
2021/10/20 01:52:12;;;;;;;14.60;13.20;;;16.90;99.90;;;;;;4958004;28;20662;-65
2021/10/20 01:54:38;;;;;;;15.40;13.77;;;16.90;99.90;;;;;;4955268;28;20618;-65
2021/10/20 01:57:04;;;;;;;14.40;13.00;;;16.90;99.90;;;;;;4956459;28;20293;-65
2021/10/20 01:59:32;;;;;;;14.03;12.73;;;16.80;99.90;;;;;;4956557;28;20206;-66
2021/10/20 02:01:57;;;;;;;13.73;12.23;;;16.80;99.90;;;;;;4957189;28;20357;-65
2021/10/20 02:04:23;;;;;;;13.87;12.57;;;16.80;99.90;;;;;;4953454;28;20622;-67
2021/10/20 02:06:48;;;;;;;13.47;12.17;;;16.80;99.90;;;;;;4956706;28;20286;-65
2021/10/20 02:09:14;;;;;;;14.37;12.97;;;16.80;99.90;;;;;;4957580;28;20194;-65
2021/10/20 02:11:42;;;;;;;14.10;12.60;;;16.80;99.90;;;;;;4958229;28;20318;-65
2021/10/20 02:14:10;;;;;;;13.33;12.03;;;16.80;99.90;;;;;;4953519;28;20262;-65
2021/10/20 02:16:38;;;;;;;13.07;11.87;;;16.80;99.90;;;;;;4956530;28;20642;-66
2021/10/20 02:19:07;;;;;;;15.47;12.50;;;16.80;99.90;;;;;;4956407;28;20618;-65
2021/10/20 02:21:33;;;;;;;14.40;12.93;;;16.80;99.90;;;;;;4955214;28;20776;-67
2021/10/20 02:23:58;;;;;;;12.73;11.53;;;16.70;99.90;;;;;;4955131;28;20635;-65
2021/10/20 02:26:24;;;;;;;12.97;11.67;;;16.70;99.90;;;;;;4956883;28;20202;-65
2021/10/20 02:28:50;;;;;;;13.53;12.33;;;16.60;99.90;;;;;;4954330;28;20219;-66
2021/10/20 02:31:18;;;;;;;13.27;11.87;;;16.60;99.90;;;;;;4954626;28;20254;-66
2021/10/20 02:33:43;;;;;;;12.23;11.13;;;16.60;99.90;;;;;;4956747;28;20253;-65
2021/10/20 02:36:09;;;;;;;12.93;11.67;;;16.60;99.90;;;;;;4954296;28;20670;-65
2021/10/20 02:38:34;;;;;;;11.67;10.50;;;16.70;99.90;;;;;;4954648;28;20246;-68
2021/10/20 02:41:00;;;;;;;12.70;11.40;;;16.60;99.90;;;;;;4957342;28;20239;-66
2021/10/20 02:43:29;;;;;;;11.97;10.77;;;16.70;99.90;;;;;;4957377;28;20212;-67
2021/10/20 02:45:57;;;;;;;12.73;11.60;;;16.70;99.90;;;;;;4956235;28;20301;-65
2021/10/20 02:48:22;;;;;;;12.67;10.93;;;16.60;99.90;;;;;;4954669;28;20649;-66
2021/10/20 02:51:05;;;;;;;12.70;11.50;;;16.60;99.90;;;;;;4957370;28;20634;-66
2021/10/20 02:53:31;;;;;;;11.70;10.70;;;16.70;99.90;;;;;;4955594;28;20190;-65
2021/10/20 02:55:56;;;;;;;11.90;10.80;;;16.60;99.90;;;;;;4957213;28;20647;-66
2021/10/20 02:58:26;;;;;;;11.90;9.60;;;16.70;99.90;;;;;;4969904;28;20282;-67
2021/10/20 03:00:52;;;;;;;11.50;10.40;;;16.70;99.90;;;;;;4953729;28;20225;-66
2021/10/20 03:03:25;;;;;;;11.60;10.40;;;16.70;99.90;;;;;;4951532;28;21033;-65
2021/10/20 03:05:53;;;;;;;10.70;9.60;;;16.70;99.90;;;;;;4953163;28;20802;-65
2021/10/20 03:08:29;;;;;;;11.00;9.93;;;16.70;99.90;;;;;;4955911;28;20615;-65
2021/10/20 03:10:57;;;;;;;10.87;9.87;;;16.70;99.90;;;;;;4954510;28;20650;-67
2021/10/20 03:13:25;;;;;;;10.57;9.57;;;16.70;99.90;;;;;;4971217;28;21150;-70
2021/10/20 03:15:55;;;;;;;9.47;8.57;;;16.60;99.90;;;;;;4951364;28;21034;-64
2021/10/20 03:18:28;;;;;;;10.53;8.50;;;16.60;99.90;;;;;;4956971;28;20606;-66
2021/10/20 03:20:54;;;;;;;10.37;9.37;;;16.60;99.90;;;;;;4953364;28;20654;-68
2021/10/20 03:23:19;;;;;;;10.80;9.70;;;16.60;99.90;;;;;;4952005;28;20653;-64
2021/10/20 03:25:45;;;;;;;10.63;9.63;;;16.60;99.90;;;;;;4959042;28;20634;-64
2021/10/20 03:28:10;;;;;;;10.40;9.40;;;16.60;99.90;;;;;;4954250;28;20266;-65
2021/10/20 03:30:36;;;;;;;10.73;9.30;;;16.60;99.90;;;;;;4957157;28;20218;-65
2021/10/20 03:33:04;;;;;;;10.00;9.00;;;16.60;99.90;;;;;;4955973;28;20215;-66
2021/10/20 03:35:40;;;;;;;10.53;9.57;;;16.50;99.90;;;;;;4954403;28;20265;-65
2021/10/20 03:38:10;;;;;;;10.10;8.53;;;16.60;99.90;;;;;;4953756;28;20609;-65
2021/10/20 03:40:39;;;;;;;9.60;8.60;;;16.50;99.90;;;;;;4951955;28;20727;-65
2021/10/20 03:43:07;;;;;;;9.53;8.60;;;16.60;99.90;;;;;;4969061;28;20647;-70
2021/10/20 03:45:33;;;;;;;8.60;7.80;;;16.50;99.90;;;;;;4951558;28;20733;-67
2021/10/20 03:47:58;;;;;;;8.77;7.97;;;16.50;99.90;;;;;;4951437;28;20737;-66
2021/10/20 03:50:24;;;;;;;9.73;7.87;;;16.50;99.90;;;;;;4954134;28;20671;-67
2021/10/20 03:52:50;;;;;;;9.00;8.10;;;16.50;99.90;;;;;;4954577;28;20195;-67
2021/10/20 03:55:17;;;;;;;8.70;7.90;;;16.40;99.90;;;;;;4955629;28;20224;-69
2021/10/20 03:57:45;;;;;;;9.10;8.23;;;16.60;99.90;;;;;;4957014;28;20727;-65
2021/10/20 04:00:17;;;;;;;8.63;7.80;;;16.50;99.90;;;;;;4952631;28;20704;-65
2021/10/20 04:02:46;;;;;;;10.13;8.90;;;16.50;99.90;;;;;;4953284;28;20658;-65
2021/10/20 04:05:15;;;;;;;8.80;7.90;;;16.50;99.90;;;;;;4956048;28;20638;-65
2021/10/20 04:07:44;;;;;;;8.80;8.00;;;16.50;99.90;;;;;;4951260;28;20599;-65
2021/10/20 04:10:15;;;;;;;9.00;7.83;;;16.60;99.90;;;;;;4952785;28;20607;-65
2021/10/20 04:12:49;;;;;;;9.27;8.37;;;16.50;99.90;;;;;;4953485;28;20619;-65
2021/10/20 04:15:23;;;;;;;8.17;7.50;;;16.60;99.90;;;;;;4954245;28;20722;-67
2021/10/20 04:17:54;;;;;;;8.33;7.50;;;16.50;99.90;;;;;;4952773;28;20616;-65
2021/10/20 04:20:24;;;;;;;7.77;6.90;;;16.40;99.90;;;;;;4970741;28;20631;-66
2021/10/20 04:22:53;;;;;;;8.83;8.03;;;16.40;99.90;;;;;;4954024;28;21266;-67
2021/10/20 04:25:28;;;;;;;8.53;7.73;;;16.40;99.90;;;;;;4953184;28;20704;-65
2021/10/20 04:27:53;;;;;;;8.20;7.00;;;16.40;99.90;;;;;;4958142;28;20608;-66
2021/10/20 04:30:20;;;;;;;9.63;7.50;;;16.30;99.90;;;;;;4951709;28;20630;-66
2021/10/20 04:32:49;;;;;;;10.07;9.00;;;16.40;99.90;;;;;;4945400;28;20183;-65
2021/10/20 04:35:22;;;;;;;8.30;7.30;;;16.30;99.90;;;;;;4955294;28;20674;-66
2021/10/20 04:37:48;;;;;;;11.83;8.23;;;16.40;99.90;;;;;;4973354;28;20661;-66
2021/10/20 04:40:13;;;;;;;8.03;7.30;;;16.40;99.90;;;;;;4957051;28;20662;-66
2021/10/20 04:42:42;;;;;;;9.07;7.53;;;16.40;99.90;;;;;;4955041;28;20207;-67
2021/10/20 04:45:08;;;;;;;8.70;7.90;;;16.30;99.90;;;;;;4957375;28;20183;-65
2021/10/20 04:47:37;;;;;;;8.30;7.50;;;16.30;99.90;;;;;;4956853;28;20611;-65
2021/10/20 04:50:07;;;;;;;7.63;6.90;;;16.30;99.90;;;;;;4952753;28;21099;-66
2021/10/20 04:52:33;;;;;;;6.83;6.20;;;16.30;99.90;;;;;;4950329;28;20701;-65
2021/10/20 04:55:01;;;;;;;7.60;6.90;;;16.30;99.90;;;;;;4974412;28;21228;-65
2021/10/20 04:57:27;;;;;;;7.47;6.70;;;16.30;99.90;;;;;;4951756;28;21173;-65
2021/10/20 04:59:52;;;;;;;7.70;7.00;;;16.30;99.90;;;;;;4955173;28;20606;-68
2021/10/20 05:02:20;;;;;;;7.33;6.70;;;16.30;99.90;;;;;;4951450;28;20206;-65
2021/10/20 05:04:46;;;;;;;8.20;7.40;;;16.20;99.90;;;;;;4951485;28;20747;-66
2021/10/20 05:07:11;;;;;;;7.57;6.87;;;16.20;99.90;;;;;;4944369;28;20642;-67
2021/10/20 05:09:43;;;;;;;8.77;7.77;;;16.10;99.90;;;;;;4938866;28;20670;-66
2021/10/20 05:12:10;;;;;;;7.60;6.80;;;16.30;99.90;;;;;;4926122;28;20223;-65
2021/10/20 05:14:36;;;;;;;8.63;7.20;;;16.30;99.90;;;;;;4952485;28;20700;-66
2021/10/20 05:17:01;;;;;;;7.40;6.80;;;16.30;99.90;;;;;;4947117;28;20680;-65
2021/10/20 05:19:27;;;;;;;7.33;6.63;;;16.30;99.90;;;;;;4951212;28;20242;-66
2021/10/20 05:21:58;;;;;;;9.00;7.07;;;16.30;99.90;;;;;;4945427;28;20327;-67
2021/10/20 05:24:26;;;;;;;7.47;6.67;;;16.30;99.90;;;;;;4950258;28;20191;-66
2021/10/20 05:26:54;;;;;;;7.13;6.43;;;16.30;99.90;;;;;;4949565;28;20650;-66
2021/10/20 05:29:21;;;;;;;8.10;7.30;;;16.30;99.90;;;;;;4955514;28;20626;-67
2021/10/20 05:31:47;;;;;;;9.43;7.67;;;16.30;99.90;;;;;;4942314;28;20646;-65
2021/10/20 05:34:12;;;;;;;7.90;6.93;;;16.20;99.90;;;;;;4938995;28;20614;-67
2021/10/20 05:36:38;;;;;;;7.20;6.50;;;16.20;99.90;;;;;;4945226;28;20235;-64
2021/10/20 05:39:05;;;;;;;7.33;6.67;;;16.20;99.90;;;;;;4954587;28;20192;-70
2021/10/20 05:41:31;;;;;;;8.33;6.97;;;16.20;99.90;;;;;;4950021;28;20769;-65
2021/10/20 05:43:57;;;;;;;7.83;7.10;;;16.30;99.90;;;;;;4943482;28;20649;-65
2021/10/20 05:46:22;;;;;;;8.00;7.23;;;16.30;99.90;;;;;;4951271;28;20563;-65
2021/10/20 05:48:48;;;;;;;8.43;7.30;;;16.30;99.90;;;;;;4951953;28;20222;-66
2021/10/20 05:51:13;;;;;;;9.27;7.30;;;16.30;99.90;;;;;;4959435;28;20614;-66
2021/10/20 05:53:39;;;;;;;8.93;7.30;;;16.20;99.90;;;;;;4957918;28;20199;-68
2021/10/20 05:56:06;;;;;;;8.10;6.93;;;16.20;99.90;;;;;;4956766;28;20214;-65
2021/10/20 05:58:31;;;;;;;9.23;6.43;;;16.20;99.90;;;;;;4953264;28;20211;-65
2021/10/20 06:00:57;;;;;;;7.87;7.10;;;16.20;99.90;;;;;;4954327;28;20955;-66
2021/10/20 06:03:23;;;;;;;11.87;7.40;;;16.20;99.90;;;;;;4958757;28;20234;-65
2021/10/20 06:05:48;;;;;;;7.00;6.30;;;16.20;99.90;;;;;;4957423;28;20746;-66
2021/10/20 06:08:14;;;;;;;8.23;7.23;;;16.30;99.90;;;;;;4953634;28;20203;-65
2021/10/20 06:10:39;;;;;;;6.90;6.20;;;16.20;99.90;;;;;;4956580;28;20223;-66
2021/10/20 06:13:05;;;;;;;7.67;6.97;;;16.20;99.90;;;;;;4961967;28;20660;-65
2021/10/20 06:15:30;;;;;;;7.47;6.77;;;16.30;99.90;;;;;;4953291;28;20206;-66
2021/10/20 06:17:56;;;;;;;7.50;6.80;;;16.30;99.90;;;;;;4953657;28;20210;-65
2021/10/20 06:20:21;;;;;;;7.60;6.87;;;16.30;99.90;;;;;;4956225;28;20788;-65
2021/10/20 06:22:47;;;;;;;7.53;6.73;;;16.30;99.90;;;;;;4957655;28;20212;-65
2021/10/20 06:25:13;;;;;;;8.20;7.33;;;16.30;99.90;;;;;;4955181;28;20211;-68
2021/10/20 06:27:40;;;;;;;7.03;6.30;;;16.30;99.90;;;;;;4954996;28;20278;-67
2021/10/20 06:30:06;;;;;;;7.53;6.87;;;16.30;99.90;;;;;;4957095;28;20187;-65
2021/10/20 06:32:32;;;;;;;6.97;6.27;;;16.30;99.90;;;;;;4957075;28;20677;-67
2021/10/20 06:34:58;;;;;;;7.97;6.93;;;16.30;99.90;;;;;;4955472;28;20618;-67
2021/10/20 06:37:24;;;;;;;7.53;6.60;;;16.30;99.90;;;;;;4954016;28;20203;-65
2021/10/20 06:39:49;;;;;;;7.57;6.97;;;16.30;99.90;;;;;;4957129;28;20702;-65
2021/10/20 06:42:17;;;;;;;7.47;6.80;;;16.30;99.90;;;;;;4954377;28;20253;-66
2021/10/20 06:44:43;;;;;;;8.07;7.37;;;16.30;99.90;;;;;;4957183;28;20234;-66
2021/10/20 06:47:08;;;;;;;8.53;7.73;;;16.30;99.90;;;;;;4958267;28;20643;-65
2021/10/20 06:49:34;;;;;;;8.20;7.20;;;16.40;99.90;;;;;;4973031;28;20702;-66
2021/10/20 06:51:59;;;;;;;8.10;7.30;;;16.40;99.90;;;;;;4957048;28;20270;-66
2021/10/20 06:54:25;;;;;;;7.70;6.70;;;16.40;99.90;;;;;;4956001;28;20218;-67
2021/10/20 06:56:52;;;;;;;10.90;7.40;;;16.40;99.90;;;;;;4957736;28;20323;-65
2021/10/20 06:59:18;;;;;;;10.50;7.40;;;16.50;99.90;;;;;;4956459;28;20207;-65
2021/10/20 07:01:44;;;;;;;7.60;6.90;;;16.50;99.90;;;;;;4957167;28;20722;-69
2021/10/20 07:04:13;;;;;;;7.60;6.90;;;16.50;99.90;;;;;;4956149;28;20658;-67
2021/10/20 07:06:39;;;;;;;8.07;6.90;;;16.50;99.90;;;;;;4956625;28;20713;-65
2021/10/20 07:09:06;;;;;;;9.43;7.03;;;16.50;99.90;;;;;;4956654;28;20603;-66
2021/10/20 07:11:32;;;;;;;8.03;7.23;;;16.50;99.90;;;;;;4952417;28;20296;-68
2021/10/20 07:13:58;;;;;;;11.00;7.37;;;16.50;99.90;;;;;;4953300;28;20666;-66
2021/10/20 07:16:24;;;;;;;9.40;7.23;;;16.60;99.90;;;;;;4950423;28;20693;-68
2021/10/20 07:18:50;;;;;;;9.60;7.07;;;16.60;99.90;;;;;;4954175;28;20191;-67
2021/10/20 07:21:16;;;;;;;7.90;6.23;;;16.60;99.90;;;;;;4954830;28;20661;-66
2021/10/20 07:23:42;;;;;;;9.87;7.93;;;16.60;99.90;;;;;;4955983;28;20653;-66
2021/10/20 07:26:08;;;;;;;8.30;7.10;;;16.60;99.90;;;;;;4972284;28;21301;-66
2021/10/20 07:28:34;;;;;;;7.90;7.23;;;16.60;99.90;;;;;;4958473;28;20194;-66
2021/10/20 07:30:59;;;;;;;8.10;7.30;;;16.60;99.90;;;;;;4959475;28;20211;-66
2021/10/20 07:33:25;;;;;;;7.50;6.80;;;16.60;99.90;;;;;;4955965;28;20191;-65
2021/10/20 07:35:50;;;;;;;8.57;7.67;;;16.70;99.90;;;;;;4955408;28;20210;-66
2021/10/20 07:38:16;;;;;;;9.10;7.80;;;16.70;99.90;;;;;;4953875;28;20202;-68
2021/10/20 07:40:41;;;;;;;8.90;7.97;;;16.70;99.90;;;;;;4955437;28;20231;-65
2021/10/20 07:43:07;;;;;;;9.50;8.57;;;16.80;99.90;;;;;;4952492;28;20219;-66
2021/10/20 07:45:33;;;;;;;10.10;8.27;;;16.80;99.90;;;;;;4953189;28;20983;-66
2021/10/20 07:47:58;;;;;;;8.37;7.43;;;16.80;99.90;;;;;;4953740;28;20544;-65
2021/10/20 07:50:24;;;;;;;9.97;8.57;;;16.80;99.90;;;;;;4956099;28;20214;-66
2021/10/20 07:52:50;;;;;;;10.60;8.60;;;16.80;99.90;;;;;;4956292;28;20218;-65
2021/10/20 07:55:25;;;;;;;9.83;8.80;;;16.80;99.90;;;;;;4951056;28;20832;-65
2021/10/20 07:57:52;;;;;;;9.83;8.20;;;16.80;99.90;;;;;;4952474;28;20648;-66
2021/10/20 08:00:18;;;;;;;10.00;8.30;;;16.80;99.90;;;;;;4952357;28;20634;-65
2021/10/20 08:02:44;;;;;;;10.80;9.13;;;16.90;99.90;;;;;;4958286;28;21005;-65
2021/10/20 08:05:14;;;;;;;9.47;8.50;;;16.90;99.90;;;;;;4958236;28;20609;-66
2021/10/20 08:07:46;;;;;;;13.27;8.50;;;16.90;99.90;;;;;;4962962;28;20187;-65
2021/10/20 08:10:20;;;;;;;9.27;8.47;;;16.90;99.90;;;;;;4963729;28;20639;-66
2021/10/20 08:12:46;;;;;;;8.70;7.83;;;16.90;99.90;;;;;;4962478;28;20622;-66
2021/10/20 08:15:17;;;;;;;9.17;8.37;;;17.00;99.90;;;;;;4960204;28;20613;-65
2021/10/20 08:17:44;;;;;;;9.73;8.83;;;17.00;99.90;;;;;;4957889;28;20278;-66
2021/10/20 08:20:14;;;;;;;9.37;8.40;;;17.00;99.90;;;;;;4959445;28;20614;-66
2021/10/20 08:22:40;;;;;;;10.73;8.67;;;17.00;99.90;;;;;;4949690;28;20992;-66
2021/10/20 08:25:07;;;;;;;10.20;9.20;;;17.10;99.90;;;;;;4960650;28;20625;-66
2021/10/20 08:27:36;;;;;;;10.00;9.07;;;17.10;99.90;;;;;;4960050;28;20704;-68
2021/10/20 08:30:03;;;;;;;9.53;8.67;;;17.20;99.90;;;;;;4961701;28;20607;-66
2021/10/20 08:32:28;;;;;;;9.20;8.30;;;17.20;99.90;;;;;;4961477;28;20690;-65
2021/10/20 08:34:54;;;;;;;9.73;8.93;;;17.20;99.90;;;;;;4959188;28;20717;-66
2021/10/20 08:37:19;;;;;;;8.63;7.73;;;17.20;99.90;;;;;;4961204;28;20219;-66
2021/10/20 08:39:47;;;;;;;11.43;10.23;;;17.30;99.90;;;;;;4958611;28;20199;-67
2021/10/20 08:42:13;;;;;;;10.27;8.57;;;17.40;99.90;;;;;;4957532;28;20242;-66
2021/10/20 08:44:39;;;;;;;12.40;9.10;;;17.40;99.90;;;;;;4959363;28;20607;-66
2021/10/20 08:47:07;;;;;;;10.10;9.20;;;17.40;99.90;;;;;;4959046;28;20708;-67
2021/10/20 08:49:33;;;;;;;10.43;9.43;;;17.50;99.90;;;;;;4960537;28;20215;-65
2021/10/20 08:51:59;;;;;;;9.90;8.90;;;17.50;99.90;;;;;;4956958;28;20630;-68
2021/10/20 08:54:25;;;;;;;10.27;9.23;;;17.60;99.90;;;;;;4960167;28;21481;-65
2021/10/20 08:56:51;;;;;;;9.70;8.80;;;17.60;99.90;;;;;;4956668;28;20208;-66
2021/10/20 08:59:18;;;;;;;10.80;8.80;;;17.70;99.90;;;;;;4958954;28;20195;-66
2021/10/20 09:01:44;;;;;;;10.13;8.70;;;17.80;99.90;;;;;;4958267;28;20679;-66
2021/10/20 09:04:10;;;;;;;9.90;8.90;;;17.80;99.90;;;;;;4961163;28;20714;-66
2021/10/20 09:06:36;;;;;;;11.77;10.57;;;17.80;99.90;;;;;;4956147;28;20213;-67
2021/10/20 09:09:05;;;;;;;10.63;9.53;;;17.80;99.90;;;;;;4959941;28;20630;-66
2021/10/20 09:11:33;;;;;;;9.70;8.80;;;17.80;99.90;;;;;;4955750;28;20713;-65
2021/10/20 09:14:03;;;;;;;11.10;10.00;;;17.80;99.90;;;;;;4965434;28;20623;-65
2021/10/20 09:16:32;;;;;;;13.70;9.93;;;17.70;99.90;;;;;;4959718;28;20645;-66
2021/10/20 09:18:59;;;;;;;10.50;9.43;;;17.80;99.90;;;;;;4959416;28;21049;-66
2021/10/20 09:21:26;;;;;;;10.97;9.97;;;17.80;99.90;;;;;;4955865;28;20650;-66
2021/10/20 09:23:53;;;;;;;9.73;8.70;;;17.90;99.90;;;;;;4956874;28;20653;-66
2021/10/20 09:26:20;;;;;;;10.87;9.77;;;17.90;99.90;;;;;;4957364;28;20702;-66
2021/10/20 09:28:46;;;;;;;12.20;9.40;;;17.90;99.90;;;;;;4960774;28;20611;-66
2021/10/20 09:31:12;;;;;;;10.57;9.60;;;17.90;99.90;;;;;;4960990;28;20677;-65
2021/10/20 09:33:39;;;;;;;11.83;9.30;;;17.90;99.90;;;;;;4961029;28;20662;-67
2021/10/20 09:36:14;;;;;;;10.30;9.40;;;17.90;99.90;;;;;;4961213;28;20754;-67
2021/10/20 09:38:51;;;;;;;10.60;9.60;;;17.90;99.90;;;;;;4957531;28;21264;-65
2021/10/20 09:41:18;;;;;;;11.33;9.47;;;17.90;99.90;;;;;;4968786;28;20756;-68
2021/10/20 09:43:52;;;;;;;10.90;9.57;;;17.90;99.90;;;;;;4958943;28;20647;-65
2021/10/20 09:46:30;;;;;;;13.17;9.40;;;17.90;99.90;;;;;;4955733;28;20645;-66
2021/10/20 09:48:56;;;;;;;9.53;8.63;;;17.90;99.90;;;;;;4959937;28;20715;-65
2021/10/20 09:51:22;;;;;;;10.17;9.17;;;17.90;99.90;;;;;;4958770;28;20688;-66
2021/10/20 09:53:51;;;;;;;9.43;8.40;;;17.80;99.90;;;;;;4958382;28;20623;-66
2021/10/20 09:56:30;;;;;;;11.17;9.10;;;17.90;99.90;;;;;;4959639;28;20302;-66
2021/10/20 09:58:57;;;;;;;8.80;8.00;;;18.00;99.90;;;;;;4957741;28;20636;-65
2021/10/20 10:01:26;;;;;;;10.13;9.20;;;17.90;99.90;;;;;;4958506;28;20793;-66
2021/10/20 10:03:53;;;;;;;10.50;9.40;;;17.90;99.90;;;;;;4955302;28;20658;-66
2021/10/20 10:06:20;;;;;;;13.80;9.13;;;18.00;99.90;;;;;;4959026;28;21044;-66
2021/10/20 10:08:46;;;;;;;10.10;8.63;;;18.10;99.90;;;;;;4957942;28;21080;-66
2021/10/20 10:11:12;;;;;;;10.77;9.33;;;18.10;99.90;;;;;;4955004;28;21178;-66
2021/10/20 10:13:54;;;;;;;11.67;8.83;;;18.10;99.90;;;;;;4959208;28;20641;-67
2021/10/20 10:16:27;;;;;;;9.73;8.93;;;18.20;99.90;;;;;;4959299;28;20208;-66
2021/10/20 10:18:58;;;;;;;11.73;9.00;;;18.20;99.90;;;;;;4956377;28;20610;-66
2021/10/20 10:21:40;;;;;;;9.03;8.13;;;18.20;99.90;;;;;;4953471;28;20630;-69
2021/10/20 10:24:11;;;;;;;9.40;8.43;;;18.20;99.90;;;;;;4954479;28;21269;-68
2021/10/20 10:26:57;;;;;;;16.90;8.20;;;18.20;99.90;;;;;;4958676;28;21237;-65
2021/10/20 10:29:22;;;;;;;10.43;9.40;;;18.20;99.90;;;;;;4958171;28;21040;-65
2021/10/20 10:31:50;;;;;;;8.67;7.77;;;18.20;99.90;;;;;;4956614;28;20630;-66
2021/10/20 10:34:29;;;;;;;9.70;8.20;;;18.30;99.90;;;;;;4954697;28;20671;-66
2021/10/20 10:37:00;;;;;;;9.07;8.27;;;18.30;99.90;;;;;;4959385;28;21033;-67
2021/10/20 10:39:30;;;;;;;8.70;7.97;;;18.20;99.90;;;;;;4970424;28;21009;-69
2021/10/20 10:42:04;;;;;;;10.27;8.30;;;18.20;99.90;;;;;;4954214;28;20638;-66
2021/10/20 10:44:50;;;;;;;9.60;8.30;;;18.20;99.90;;;;;;4955643;28;20603;-66
2021/10/20 10:47:20;;;;;;;8.77;7.97;;;18.30;99.90;;;;;;4956293;28;21242;-66
2021/10/20 10:49:49;;;;;;;9.87;8.87;;;18.10;99.90;;;;;;4957060;28;20701;-65
2021/10/20 10:52:17;;;;;;;9.37;8.57;;;18.10;99.90;;;;;;4958685;28;20638;-65
2021/10/20 10:55:00;;;;;;;9.30;8.40;;;18.10;99.90;;;;;;4956471;28;21269;-66
2021/10/20 10:57:54;;;;;;;10.10;9.00;;;18.00;99.90;;;;;;4958094;28;21286;-67
2021/10/20 11:00:20;;;;;;;9.90;8.90;;;17.90;99.90;;;;;;4971694;28;20731;-67
2021/10/20 11:03:04;;;;;;;9.20;8.30;;;17.80;99.90;;;;;;4954847;28;20805;-65
2021/10/20 11:05:32;;;;;;;8.90;8.00;;;17.80;99.90;;;;;;4955930;28;20219;-68
2021/10/20 11:08:00;;;;;;;9.33;8.53;;;17.80;99.90;;;;;;4955473;28;20615;-66
2021/10/20 11:10:26;;;;;;;9.70;8.60;;;17.70;99.90;;;;;;4958360;28;20639;-65
2021/10/20 11:12:56;;;;;;;9.73;8.73;;;17.70;99.90;;;;;;4959394;28;20709;-67
2021/10/20 11:15:24;;;;;;;9.40;8.50;;;17.70;99.90;;;;;;4958282;28;20667;-65
2021/10/20 11:17:50;;;;;;;8.60;7.80;;;17.80;99.90;;;;;;4958360;28;21133;-69
2021/10/20 11:20:22;;;;;;;9.47;8.57;;;17.90;99.90;;;;;;4955023;28;20643;-65
2021/10/20 11:22:51;;;;;;;9.07;8.27;;;17.90;99.90;;;;;;4954339;28;20653;-65
2021/10/20 11:25:18;;;;;;;8.60;7.80;;;18.00;99.90;;;;;;4962741;28;20639;-67
2021/10/20 11:27:48;;;;;;;8.83;7.90;;;18.00;99.90;;;;;;4967164;28;20617;-66
2021/10/20 11:30:15;;;;;;;8.00;7.30;;;18.00;99.90;;;;;;4951899;28;20642;-66
2021/10/20 11:32:43;;;;;;;9.13;8.20;;;18.10;99.90;;;;;;4954086;28;20615;-66
2021/10/20 11:35:15;;;;;;;9.37;8.37;;;18.00;99.90;;;;;;4952985;28;20729;-69
2021/10/20 11:37:40;;;;;;;8.90;8.10;;;18.10;99.90;;;;;;4953734;28;20567;-67
2021/10/20 11:40:07;;;;;;;10.10;8.70;;;18.00;99.90;;;;;;4951757;28;20615;-66
2021/10/20 11:42:32;;;;;;;8.57;7.50;;;18.10;99.90;;;;;;4954978;28;20277;-68
2021/10/20 11:45:04;;;;;;;9.47;7.83;;;18.10;99.90;;;;;;4955368;28;21155;-66
2021/10/20 11:47:31;;;;;;;8.37;7.57;;;18.10;99.90;;;;;;4962381;28;20282;-66
2021/10/20 11:49:57;;;;;;;8.67;7.70;;;18.10;99.90;;;;;;4957538;28;20603;-68
2021/10/20 11:52:25;;;;;;;14.97;8.20;;;18.10;99.90;;;;;;4957757;28;20611;-67
2021/10/20 11:54:54;;;;;;;8.17;7.37;;;18.20;99.90;;;;;;4957650;28;20618;-67
2021/10/20 11:57:21;;;;;;;9.13;7.40;;;18.20;99.90;;;;;;4970245;28;20646;-66
2021/10/20 11:59:48;;;;;;;7.90;7.03;;;18.10;99.90;;;;;;4954531;28;20693;-66
2021/10/20 12:02:14;;;;;;;8.20;7.50;;;18.20;99.90;;;;;;4948798;28;20659;-66
2021/10/20 12:04:41;;;;;;;8.60;7.73;;;18.20;99.90;;;;;;4964039;28;20619;-66
2021/10/20 12:07:10;;;;;;;8.47;7.77;;;18.20;99.90;;;;;;4969749;28;20634;-66
2021/10/20 12:09:41;;;;;;;8.17;7.37;;;18.20;99.90;;;;;;4959318;28;20662;-70
2021/10/20 12:12:07;;;;;;;8.67;7.87;;;18.20;99.90;;;;;;4952381;28;20645;-66
2021/10/20 12:14:37;;;;;;;8.20;7.50;;;18.20;99.90;;;;;;4954775;28;20611;-66
2021/10/20 12:17:05;;;;;;;8.70;7.90;;;18.20;99.90;;;;;;4958948;28;21042;-67
2021/10/20 12:19:33;;;;;;;9.50;7.90;;;18.20;99.90;;;;;;4958050;28;20619;-67
2021/10/20 12:22:10;;;;;;;8.90;8.20;;;18.10;99.90;;;;;;4955479;28;20727;-66
2021/10/20 12:24:45;;;;;;;9.97;8.97;;;18.10;99.90;;;;;;4954042;28;20634;-66
2021/10/20 12:27:11;;;;;;;8.77;7.97;;;18.00;99.90;;;;;;4973313;28;21014;-66
2021/10/20 12:29:43;;;;;;;9.23;8.53;;;17.90;99.90;;;;;;4956848;28;21279;-66
2021/10/20 12:32:14;;;;;;;9.60;8.73;;;17.90;99.90;;;;;;4967506;28;20648;-67
2021/10/20 12:34:52;;;;;;;10.20;9.27;;;17.80;99.90;;;;;;4956890;28;20579;-68
2021/10/20 12:37:18;;;;;;;10.27;9.27;;;17.90;99.90;;;;;;4960222;28;20726;-67
2021/10/20 12:39:50;;;;;;;9.80;8.90;;;17.80;99.90;;;;;;4959208;28;21032;-68
2021/10/20 12:42:16;;;;;;;9.87;8.90;;;17.80;99.90;;;;;;4953912;28;20639;-68
2021/10/20 12:44:43;;;;;;;10.43;9.33;;;17.80;99.90;;;;;;4953603;28;20603;-68